Time;durP1;ratioP1;P1;durP2;ratioP2;P2;SDS_P1;SDS_P2;PMS_P1;PMS_P2;Temp;Humidity;BMP_temperature;BMP_pressure;BME280_temperature;BME280_humidity;BME280_pressure;Samples;Min_cycle;Max_cycle;Signal;HPM_P1;HPM_P2
2022/03/24 00:00:39;;;;;;;18.60;10.77;;;8.70;61.20;;;;;;5114025;28;20129;-64
2022/03/24 00:03:42;;;;;;;17.38;9.73;;;8.60;60.80;;;;;;5113823;28;20110;-63
2022/03/24 00:06:46;;;;;;;20.42;10.18;;;8.70;59.40;;;;;;5113196;28;20379;-63
2022/03/24 00:09:50;;;;;;;22.13;12.07;;;8.60;60.30;;;;;;5113892;28;20481;-63
2022/03/24 00:12:57;;;;;;;22.35;14.82;;;8.60;60.80;;;;;;5113452;28;20374;-64
2022/03/24 00:16:01;;;;;;;24.42;14.57;;;8.50;62.00;;;;;;5113216;28;20042;-63
2022/03/24 00:19:05;;;;;;;21.63;12.88;;;8.50;62.20;;;;;;5113875;28;20047;-63
2022/03/24 00:22:09;;;;;;;22.58;13.73;;;8.50;62.00;;;;;;5113158;28;20043;-64
2022/03/24 00:25:13;;;;;;;17.30;11.27;;;8.40;61.90;;;;;;5113405;28;20051;-63
2022/03/24 00:28:19;;;;;;;16.83;10.10;;;8.10;61.60;;;;;;5112492;28;20046;-63
2022/03/24 00:31:24;;;;;;;13.60;8.20;;;8.10;60.70;;;;;;5112952;28;20058;-64
2022/03/24 00:34:28;;;;;;;16.83;8.48;;;7.90;60.20;;;;;;5112825;28;20050;-64
2022/03/24 00:37:32;;;;;;;12.07;7.22;;;7.90;60.10;;;;;;5112316;28;20043;-63
2022/03/24 00:40:36;;;;;;;14.40;7.05;;;7.80;60.50;;;;;;5113232;28;20666;-63
2022/03/24 00:43:40;;;;;;;11.80;7.15;;;7.70;60.70;;;;;;5112686;28;20050;-63
2022/03/24 00:46:44;;;;;;;15.73;6.65;;;7.60;61.00;;;;;;5112598;28;20050;-63
2022/03/24 00:49:48;;;;;;;14.13;7.18;;;7.60;61.10;;;;;;5111772;28;20647;-64
2022/03/24 00:52:52;;;;;;;11.52;6.90;;;7.50;61.20;;;;;;5112770;28;20071;-63
2022/03/24 00:55:56;;;;;;;12.13;7.03;;;7.50;61.30;;;;;;5111798;28;20370;-63
2022/03/24 00:59:00;;;;;;;11.27;6.30;;;7.40;60.90;;;;;;5112708;28;20642;-63
2022/03/24 01:02:09;;;;;;;10.85;6.05;;;7.50;61.10;;;;;;5112870;28;20047;-63
2022/03/24 01:05:18;;;;;;;18.05;10.23;;;7.50;60.80;;;;;;5111771;28;20050;-63
2022/03/24 01:08:24;;;;;;;16.83;10.13;;;7.40;62.00;;;;;;5111283;28;20055;-63
2022/03/24 01:11:28;;;;;;;21.83;8.98;;;7.30;64.00;;;;;;5112535;28;20042;-63
2022/03/24 01:14:35;;;;;;;12.15;6.60;;;7.20;63.40;;;;;;5112199;28;20039;-63
2022/03/24 01:17:39;;;;;;;9.68;6.18;;;7.00;62.70;;;;;;5111093;28;20046;-62
2022/03/24 01:20:45;;;;;;;14.90;8.05;;;7.00;62.70;;;;;;5112730;28;20482;-63
2022/03/24 01:23:49;;;;;;;16.75;8.90;;;6.90;62.60;;;;;;5111983;28;20047;-63
2022/03/24 01:26:53;;;;;;;12.93;7.78;;;6.90;63.10;;;;;;5111663;28;20059;-63
2022/03/24 01:29:59;;;;;;;13.93;8.27;;;6.80;62.90;;;;;;5112022;28;20653;-63
2022/03/24 01:33:02;;;;;;;16.10;9.05;;;6.80;63.20;;;;;;5111210;28;20035;-63
2022/03/24 01:36:08;;;;;;;18.42;10.43;;;6.70;63.60;;;;;;5110970;28;20046;-63
2022/03/24 01:39:12;;;;;;;21.90;10.35;;;6.70;63.70;;;;;;5111160;28;20067;-63
2022/03/24 01:42:18;;;;;;;20.77;11.85;;;6.70;64.20;;;;;;5111391;28;20074;-66
2022/03/24 01:45:23;;;;;;;20.27;12.13;;;6.70;65.30;;;;;;5112015;28;20039;-63
2022/03/24 01:48:28;;;;;;;18.67;11.98;;;6.80;65.20;;;;;;5112035;28;20043;-63
2022/03/24 01:51:32;;;;;;;23.27;13.10;;;6.90;65.10;;;;;;5112073;28;20043;-63
2022/03/24 01:54:42;;;;;;;17.85;11.48;;;6.80;65.70;;;;;;5111256;28;20050;-63
2022/03/24 01:57:47;;;;;;;21.85;12.32;;;6.80;65.30;;;;;;5110374;28;20497;-63
2022/03/24 02:00:51;;;;;;;17.73;10.57;;;6.80;66.40;;;;;;5110738;28;20378;-63
2022/03/24 02:03:57;;;;;;;12.65;7.22;;;6.70;65.80;;;;;;5111176;28;20038;-63
2022/03/24 02:07:03;;;;;;;10.88;6.53;;;6.70;64.30;;;;;;5110078;28;20509;-63
2022/03/24 02:10:08;;;;;;;16.52;8.68;;;6.50;64.00;;;;;;5110972;28;20042;-63
2022/03/24 02:13:12;;;;;;;15.20;9.40;;;6.40;64.40;;;;;;5110225;28;20043;-63
2022/03/24 02:16:17;;;;;;;15.77;7.47;;;6.50;65.20;;;;;;5110392;28;20050;-63
2022/03/24 02:19:23;;;;;;;12.50;7.28;;;6.40;64.90;;;;;;5110499;28;20055;-64
2022/03/24 02:22:28;;;;;;;11.10;6.57;;;6.50;64.60;;;;;;5110786;28;20493;-66
2022/03/24 02:25:33;;;;;;;11.48;7.10;;;6.50;65.00;;;;;;5111244;28;20047;-63
2022/03/24 02:28:38;;;;;;;12.68;7.43;;;6.50;64.80;;;;;;5111544;28;20046;-65
2022/03/24 02:31:48;;;;;;;12.93;7.85;;;6.50;64.60;;;;;;5111722;28;20486;-63
2022/03/24 02:34:52;;;;;;;18.85;11.05;;;6.50;65.10;;;;;;5111575;28;20055;-63
2022/03/24 02:37:56;;;;;;;18.35;11.32;;;6.30;66.70;;;;;;5111266;28;20054;-63
2022/03/24 02:41:01;;;;;;;17.20;11.15;;;6.10;67.50;;;;;;5111763;28;20050;-63
2022/03/24 02:44:05;;;;;;;15.80;9.77;;;6.00;68.30;;;;;;5111216;28;20042;-63
2022/03/24 02:47:10;;;;;;;17.80;9.90;;;5.90;67.90;;;;;;5113050;28;20051;-63
2022/03/24 02:50:14;;;;;;;14.90;8.88;;;5.90;67.80;;;;;;5115955;28;20106;-65
2022/03/24 02:53:19;;;;;;;18.23;10.68;;;5.90;67.40;;;;;;5115905;28;20398;-65
2022/03/24 02:56:23;;;;;;;15.15;8.68;;;6.00;67.50;;;;;;5115357;28;20500;-63
2022/03/24 02:59:28;;;;;;;15.57;8.38;;;6.10;67.10;;;;;;5115898;28;20481;-63
2022/03/24 03:02:32;;;;;;;18.48;8.90;;;6.10;66.70;;;;;;5115399;28;20062;-65
2022/03/24 03:05:36;;;;;;;14.20;8.52;;;6.10;66.90;;;;;;5114562;28;20054;-63
2022/03/24 03:08:40;;;;;;;18.83;10.07;;;6.00;67.20;;;;;;5115018;28;20050;-65
2022/03/24 03:11:45;;;;;;;18.90;9.77;;;6.00;67.80;;;;;;5114943;28;20047;-66
2022/03/24 03:14:49;;;;;;;21.63;11.55;;;6.00;68.00;;;;;;5114427;28;20054;-65
2022/03/24 03:17:53;;;;;;;20.80;14.10;;;5.90;68.50;;;;;;5113811;28;20038;-65
2022/03/24 03:20:57;;;;;;;21.30;12.57;;;5.90;68.70;;;;;;5114912;28;20046;-65
2022/03/24 03:24:02;;;;;;;20.65;12.63;;;6.00;69.10;;;;;;5114399;28;20039;-63
2022/03/24 03:27:07;;;;;;;23.55;13.35;;;5.90;69.50;;;;;;5114218;28;20050;-63
2022/03/24 03:30:12;;;;;;;27.98;12.90;;;5.70;70.00;;;;;;5112907;28;20039;-62
2022/03/24 03:33:16;;;;;;;27.05;14.90;;;5.60;70.60;;;;;;5114163;28;20035;-65
2022/03/24 03:36:21;;;;;;;30.55;14.70;;;5.40;71.00;;;;;;5113734;28;20043;-63
2022/03/24 03:39:26;;;;;;;24.50;14.82;;;5.40;71.40;;;;;;5114720;28;20050;-65
2022/03/24 03:42:30;;;;;;;24.75;14.75;;;5.40;71.60;;;;;;5114472;28;20054;-63
2022/03/24 03:45:34;;;;;;;26.02;13.65;;;5.40;71.70;;;;;;5114059;28;20058;-63
2022/03/24 03:48:39;;;;;;;23.40;12.40;;;5.50;71.20;;;;;;5114474;28;20046;-63
2022/03/24 03:51:43;;;;;;;21.15;12.77;;;5.50;70.90;;;;;;5114098;28;20050;-63
2022/03/24 03:54:47;;;;;;;23.60;12.35;;;5.50;71.00;;;;;;5114051;28;20087;-63
2022/03/24 03:57:51;;;;;;;24.20;12.35;;;5.40;70.80;;;;;;5113417;28;20054;-65
2022/03/24 04:00:56;;;;;;;24.67;12.40;;;5.40;70.90;;;;;;5114365;28;20054;-66
2022/03/24 04:04:00;;;;;;;21.55;12.55;;;5.50;70.80;;;;;;5112817;28;20047;-63
2022/03/24 04:07:04;;;;;;;21.20;11.80;;;5.50;70.60;;;;;;5113787;28;20370;-64
2022/03/24 04:10:09;;;;;;;23.13;12.57;;;5.50;70.40;;;;;;5114017;28;20055;-63
2022/03/24 04:13:13;;;;;;;23.92;12.68;;;5.50;70.50;;;;;;5112715;28;20035;-63
2022/03/24 04:16:17;;;;;;;24.25;14.02;;;5.40;71.00;;;;;;5112116;28;20051;-63
2022/03/24 04:19:22;;;;;;;27.13;14.57;;;5.40;71.40;;;;;;5113704;28;20054;-63
2022/03/24 04:22:26;;;;;;;24.60;13.13;;;5.30;73.00;;;;;;5113543;28;20568;-66
2022/03/24 04:25:31;;;;;;;24.65;13.82;;;5.10;73.50;;;;;;5113103;28;20527;-65
2022/03/24 04:28:35;;;;;;;23.70;14.60;;;5.10;74.00;;;;;;5113291;28;20043;-65
2022/03/24 04:31:39;;;;;;;25.58;14.63;;;4.90;74.00;;;;;;5113528;28;20497;-65
2022/03/24 04:34:43;;;;;;;29.60;16.50;;;4.70;75.50;;;;;;5113536;28;20043;-65
2022/03/24 04:37:48;;;;;;;29.83;15.82;;;4.70;78.10;;;;;;5112211;28;20043;-65
2022/03/24 04:40:52;;;;;;;24.30;15.57;;;4.60;78.90;;;;;;5113471;28;20387;-65
2022/03/24 04:43:56;;;;;;;23.23;14.48;;;4.40;79.00;;;;;;5113407;28;20038;-65
2022/03/24 04:47:00;;;;;;;23.77;14.80;;;4.30;79.50;;;;;;5112387;28;20047;-65
2022/03/24 04:50:05;;;;;;;28.55;15.40;;;4.20;79.90;;;;;;5113286;28;20466;-66
2022/03/24 04:53:17;;;;;;;27.40;15.90;;;4.20;81.30;;;;;;5113014;28;20054;-63
2022/03/24 04:56:21;;;;;;;27.43;15.87;;;4.20;81.20;;;;;;5112267;28;20051;-65
2022/03/24 04:59:25;;;;;;;30.65;16.30;;;4.10;81.00;;;;;;5113218;28;20284;-65
2022/03/24 05:02:29;;;;;;;26.65;15.02;;;4.10;80.70;;;;;;5112959;28;20062;-65
2022/03/24 05:05:34;;;;;;;26.70;14.30;;;4.10;80.80;;;;;;5112763;28;20038;-66
2022/03/24 05:08:38;;;;;;;26.55;13.98;;;3.90;81.50;;;;;;5112961;28;20046;-65
2022/03/24 05:11:42;;;;;;;21.23;12.20;;;3.80;81.80;;;;;;5112203;28;20105;-65
2022/03/24 05:14:46;;;;;;;32.17;14.73;;;3.80;81.50;;;;;;5112315;28;20034;-65
2022/03/24 05:17:51;;;;;;;19.15;11.10;;;3.80;81.20;;;;;;5112002;28;20046;-63
2022/03/24 05:20:55;;;;;;;21.35;12.13;;;3.90;80.80;;;;;;5112977;28;20109;-63
2022/03/24 05:24:00;;;;;;;21.55;11.25;;;4.00;80.30;;;;;;5112472;28;20051;-66
2022/03/24 05:27:05;;;;;;;19.95;11.90;;;4.10;79.70;;;;;;5111241;28;20043;-64
2022/03/24 05:30:10;;;;;;;20.10;11.73;;;4.20;80.00;;;;;;5111919;28;20042;-63
2022/03/24 05:33:15;;;;;;;18.08;10.57;;;4.30;79.30;;;;;;5112143;28;20058;-65
2022/03/24 05:36:19;;;;;;;17.60;10.57;;;4.30;78.50;;;;;;5111178;28;20046;-65
2022/03/24 05:39:24;;;;;;;30.60;12.70;;;4.40;77.90;;;;;;5111940;28;20500;-63
2022/03/24 05:42:28;;;;;;;38.70;19.42;;;4.40;78.90;;;;;;5112126;28;20047;-65
2022/03/24 05:45:32;;;;;;;23.77;14.45;;;4.40;79.20;;;;;;5111853;28;20051;-65
2022/03/24 05:48:36;;;;;;;33.67;16.50;;;4.40;81.50;;;;;;5111868;28;20043;-65
2022/03/24 05:51:59;;;;;;;24.77;12.35;;;4.50;80.50;;;;;;5112058;28;20047;-65
2022/03/24 05:55:04;;;;;;;24.23;12.68;;;4.60;79.30;;;;;;5112473;28;20046;-65
2022/03/24 05:58:09;;;;;;;28.25;12.85;;;4.60;79.00;;;;;;5111424;28;20050;-64
2022/03/24 06:01:16;;;;;;;25.50;12.60;;;5.60;78.80;;;;;;5112183;28;20390;-63
2022/03/24 06:04:21;;;;;;;21.73;12.30;;;9.10;72.70;;;;;;5112103;28;20058;-65
2022/03/24 06:07:25;;;;;;;23.45;13.70;;;12.70;65.60;;;;;;5111290;28;20047;-65
2022/03/24 06:10:31;;;;;;;30.35;14.18;;;15.50;60.00;;;;;;5111305;28;20055;-63
2022/03/24 06:13:36;;;;;;;22.58;12.98;;;17.60;55.60;;;;;;5111983;28;20051;-64
2022/03/24 06:16:41;;;;;;;23.20;13.10;;;19.00;53.00;;;;;;5111243;28;20050;-63
2022/03/24 06:19:47;;;;;;;21.08;13.07;;;20.00;51.80;;;;;;5112073;28;20055;-63
2022/03/24 06:22:53;;;;;;;21.95;13.38;;;20.60;50.50;;;;;;5111442;28;20493;-63
2022/03/24 06:26:00;;;;;;;21.98;14.40;;;20.90;49.80;;;;;;5111551;28;20047;-64
2022/03/24 06:29:04;;;;;;;24.13;14.25;;;21.00;49.20;;;;;;5110674;28;20054;-64
2022/03/24 06:32:09;;;;;;;26.35;15.57;;;21.20;49.30;;;;;;5111516;28;20047;-64
2022/03/24 06:35:13;;;;;;;23.67;15.13;;;20.10;49.00;;;;;;5111428;28;20050;-63
2022/03/24 06:38:18;;;;;;;22.42;13.25;;;20.40;49.40;;;;;;5110401;28;20050;-64
2022/03/24 06:41:22;;;;;;;19.60;13.32;;;20.60;49.00;;;;;;5111238;28;20046;-64
2022/03/24 06:44:26;;;;;;;22.42;13.35;;;21.80;48.50;;;;;;5110949;28;20062;-64
2022/03/24 06:47:31;;;;;;;21.35;13.23;;;23.00;47.60;;;;;;5109568;28;20051;-64
2022/03/24 06:50:36;;;;;;;20.80;13.35;;;22.80;47.10;;;;;;5110952;28;20055;-64
2022/03/24 06:53:40;;;;;;;21.45;13.15;;;22.80;47.60;;;;;;5111087;28;20572;-65
2022/03/24 06:56:44;;;;;;;18.90;14.02;;;23.30;47.30;;;;;;5110172;28;20066;-64
2022/03/24 06:59:48;;;;;;;16.45;12.85;;;20.30;47.00;;;;;;5109844;28;20042;-64
2022/03/24 07:02:53;;;;;;;17.63;12.93;;;18.20;50.10;;;;;;5105374;28;20047;-64
2022/03/24 07:05:57;;;;;;;19.00;13.38;;;16.40;53.40;;;;;;5101310;28;20043;-64
2022/03/24 07:09:01;;;;;;;19.75;13.27;;;16.40;53.80;;;;;;5104142;28;20047;-64
2022/03/24 07:12:06;;;;;;;19.75;12.77;;;18.00;53.40;;;;;;5107093;28;20054;-64
2022/03/24 07:15:11;;;;;;;21.15;12.77;;;19.60;51.20;;;;;;5107215;28;21537;-64
2022/03/24 07:18:16;;;;;;;15.48;12.02;;;20.60;49.30;;;;;;5101138;28;20042;-64
2022/03/24 07:21:21;;;;;;;17.85;12.70;;;22.00;48.70;;;;;;5102053;28;20047;-64
2022/03/24 07:24:25;;;;;;;16.92;12.25;;;23.30;47.60;;;;;;5100754;28;20057;-65
2022/03/24 07:27:29;;;;;;;21.55;13.48;;;24.10;46.70;;;;;;5101167;28;20039;-65
2022/03/24 07:30:34;;;;;;;14.38;11.88;;;24.00;46.10;;;;;;5106473;28;20050;-65
2022/03/24 07:33:38;;;;;;;16.02;11.55;;;24.30;46.10;;;;;;5106348;28;20054;-65
2022/03/24 07:36:43;;;;;;;15.43;11.80;;;24.10;46.30;;;;;;5110898;28;20047;-65
2022/03/24 07:39:47;;;;;;;20.67;15.18;;;25.10;45.20;;;;;;5101681;28;20055;-65
2022/03/24 07:42:53;;;;;;;20.33;13.10;;;24.20;45.70;;;;;;5109241;28;20050;-65
2022/03/24 07:45:57;;;;;;;16.50;12.10;;;22.80;47.00;;;;;;5103783;28;20058;-64
2022/03/24 07:49:01;;;;;;;17.88;12.48;;;19.90;49.40;;;;;;5109566;28;20039;-65
2022/03/24 07:52:12;;;;;;;19.33;12.80;;;18.90;52.00;;;;;;5104220;28;20051;-65
2022/03/24 07:55:16;;;;;;;19.90;12.05;;;19.50;51.10;;;;;;5098198;28;20051;-65
2022/03/24 07:58:21;;;;;;;16.58;12.15;;;20.70;50.60;;;;;;5099150;28;20035;-65
2022/03/24 08:01:30;;;;;;;17.40;12.25;;;21.20;49.40;;;;;;5104834;28;20039;-64
2022/03/24 08:04:34;;;;;;;17.02;12.52;;;21.20;49.40;;;;;;5106013;28;20109;-65
2022/03/24 08:07:39;;;;;;;17.92;11.93;;;22.20;49.30;;;;;;5107390;28;20051;-66
2022/03/24 08:10:48;;;;;;;15.95;11.52;;;23.10;48.70;;;;;;5110589;28;20042;-64
2022/03/24 08:13:57;;;;;;;21.10;12.63;;;22.10;48.80;;;;;;5109840;28;20039;-64
2022/03/24 08:17:01;;;;;;;15.38;12.10;;;21.60;48.60;;;;;;5110775;28;20038;-65
2022/03/24 08:20:06;;;;;;;18.88;12.75;;;20.20;51.80;;;;;;5106647;28;20046;-64
2022/03/24 08:23:11;;;;;;;20.83;12.90;;;18.90;52.90;;;;;;5100761;28;20054;-64
2022/03/24 08:26:15;;;;;;;21.85;13.13;;;21.70;51.20;;;;;;5106476;28;20505;-65
2022/03/24 08:29:19;;;;;;;18.67;12.43;;;21.90;50.40;;;;;;5104638;28;20315;-65
2022/03/24 08:32:23;;;;;;;19.75;13.13;;;21.70;49.20;;;;;;5109508;28;20050;-65
2022/03/24 08:35:28;;;;;;;16.08;11.73;;;22.10;47.70;;;;;;5108113;28;20043;-65
2022/03/24 08:38:32;;;;;;;20.80;12.45;;;23.80;47.90;;;;;;5110059;28;20063;-65
2022/03/24 08:41:36;;;;;;;15.25;11.77;;;24.90;45.70;;;;;;5103079;28;20050;-65
2022/03/24 08:44:40;;;;;;;18.58;12.07;;;22.90;45.50;;;;;;5108020;28;20046;-65
2022/03/24 08:47:44;;;;;;;16.25;11.82;;;22.50;47.60;;;;;;5101354;28;20039;-65
2022/03/24 08:50:48;;;;;;;15.30;11.25;;;25.00;46.50;;;;;;5103489;28;20046;-65
2022/03/24 08:53:52;;;;;;;18.00;11.70;;;27.80;45.60;;;;;;5100342;28;20106;-65
2022/03/24 08:56:56;;;;;;;18.60;11.43;;;25.70;44.80;;;;;;5101940;28;20058;-65
2022/03/24 09:00:07;;;;;;;15.70;11.75;;;26.10;44.30;;;;;;5107425;28;20042;-65
2022/03/24 09:03:38;;;;;;;16.48;11.02;;;25.90;45.30;;;;;;5100989;28;20359;-74
2022/03/24 09:06:48;;;;;;;12.23;9.93;;;27.60;44.00;;;;;;5100621;28;20055;-74
2022/03/24 09:09:53;;;;;;;14.30;10.70;;;28.20;43.70;;;;;;5104221;28;20058;-63
2022/03/24 09:12:57;;;;;;;17.75;11.75;;;29.70;44.10;;;;;;5102234;28;20046;-65
2022/03/24 09:16:02;;;;;;;15.57;10.25;;;28.50;41.80;;;;;;5109862;28;20676;-72
2022/03/24 09:19:07;;;;;;;19.58;10.88;;;28.50;42.40;;;;;;5101960;28;20035;-62
2022/03/24 09:22:11;;;;;;;13.68;10.27;;;26.60;43.90;;;;;;5104095;28;20385;-63
2022/03/24 09:25:17;;;;;;;12.32;10.23;;;29.70;42.90;;;;;;5100339;28;20050;-63
2022/03/24 09:28:27;;;;;;;13.05;9.95;;;28.40;40.70;;;;;;5102198;28;20046;-63
2022/03/24 09:31:33;;;;;;;19.23;9.82;;;28.60;40.70;;;;;;5105529;28;20058;-71
2022/03/24 09:34:38;;;;;;;14.93;9.18;;;29.00;41.30;;;;;;5103851;28;20399;-62
2022/03/24 09:37:43;;;;;;;11.77;9.32;;;30.40;40.20;;;;;;5096961;28;20038;-62
2022/03/24 09:40:52;;;;;;;13.75;10.23;;;33.40;38.70;;;;;;5102966;28;20038;-72
2022/03/24 09:44:07;;;;;;;13.13;8.73;;;34.90;39.10;;;;;;5090333;28;20375;-63
2022/03/24 09:47:13;;;;;;;9.82;8.77;;;34.50;38.80;;;;;;5104828;28;20051;-63
2022/03/24 09:50:18;;;;;;;13.48;9.20;;;34.80;37.80;;;;;;5109920;28;20046;-63
2022/03/24 09:53:23;;;;;;;11.48;8.38;;;35.90;37.60;;;;;;5107395;28;20043;-63
2022/03/24 09:56:28;;;;;;;14.05;8.30;;;35.70;37.10;;;;;;5097462;28;20058;-63
2022/03/24 09:59:34;;;;;;;17.05;7.88;;;33.50;37.30;;;;;;5105421;28;20031;-63
2022/03/24 10:02:38;;;;;;;17.52;7.45;;;35.30;37.70;;;;;;5100757;28;20678;-63
2022/03/24 10:05:56;;;;;;;10.07;7.30;;;34.70;37.20;;;;;;5106196;28;20098;-63
2022/03/24 10:09:00;;;;;;;8.20;6.53;;;34.60;37.40;;;;;;5109059;28;20366;-63
2022/03/24 10:12:06;;;;;;;9.68;6.60;;;36.40;35.80;;;;;;5109175;28;20039;-64
2022/03/24 10:15:13;;;;;;;12.70;7.18;;;36.80;36.10;;;;;;5106547;28;20481;-72
2022/03/24 10:18:17;;;;;;;8.40;6.57;;;33.60;36.40;;;;;;5101477;28;20378;-63
2022/03/24 10:21:23;;;;;;;13.43;7.55;;;34.00;36.30;;;;;;5096764;28;20031;-72
2022/03/24 10:24:28;;;;;;;15.55;6.60;;;32.10;36.30;;;;;;5102691;28;20047;-71
2022/03/24 10:27:32;;;;;;;12.55;7.15;;;32.10;36.50;;;;;;5105392;28;20047;-72
2022/03/24 10:30:53;;;;;;;8.27;5.97;;;35.50;37.90;;;;;;5105792;28;20046;-64
2022/03/24 10:33:58;;;;;;;7.55;5.57;;;35.40;34.70;;;;;;5107619;28;20043;-72
2022/03/24 10:37:12;;;;;;;6.13;5.10;;;37.50;35.00;;;;;;5106072;28;20398;-72
2022/03/24 10:40:19;;;;;;;7.03;5.20;;;36.60;35.30;;;;;;5103259;28;20110;-72
2022/03/24 10:43:23;;;;;;;7.22;4.63;;;38.30;34.60;;;;;;5105992;28;20058;-64
2022/03/24 10:46:30;;;;;;;6.35;5.25;;;35.20;32.30;;;;;;5104055;28;20036;-64
2022/03/24 10:49:34;;;;;;;6.43;4.63;;;35.70;34.40;;;;;;5105751;28;20047;-63
2022/03/24 10:52:39;;;;;;;6.25;5.35;;;36.20;33.30;;;;;;5100428;28;20059;-65
2022/03/24 10:55:43;;;;;;;8.10;5.07;;;30.60;34.60;;;;;;5106592;28;20374;-72
2022/03/24 10:59:03;;;;;;;6.35;4.63;;;31.00;34.20;;;;;;5095541;28;20054;-71
2022/03/24 11:02:10;;;;;;;7.20;5.32;;;34.80;34.30;;;;;;5100118;28;20638;-63
2022/03/24 11:05:15;;;;;;;9.60;5.28;;;34.30;34.90;;;;;;5102019;28;20043;-63
2022/03/24 11:08:19;;;;;;;5.88;4.55;;;34.60;34.90;;;;;;5097966;28;20433;-64
2022/03/24 11:11:25;;;;;;;6.70;4.90;;;33.60;34.70;;;;;;5103332;28;20047;-73
2022/03/24 11:14:29;;;;;;;7.63;4.50;;;32.20;33.80;;;;;;5108532;28;20501;-64
2022/03/24 11:17:35;;;;;;;8.73;4.25;;;34.90;34.50;;;;;;5112514;28;20402;-64
2022/03/24 11:20:40;;;;;;;5.80;4.18;;;37.50;34.40;;;;;;5107371;28;20038;-64
2022/03/24 11:23:46;;;;;;;12.50;3.72;;;39.60;33.90;;;;;;5114719;28;20042;-65
2022/03/24 11:26:51;;;;;;;4.55;3.30;;;41.20;33.10;;;;;;5109168;28;20039;-64
2022/03/24 11:29:57;;;;;;;6.50;3.22;;;42.80;32.30;;;;;;5110515;28;20485;-64
2022/03/24 11:33:03;;;;;;;8.27;3.35;;;43.30;31.70;;;;;;5104853;28;20703;-72
2022/03/24 11:36:08;;;;;;;3.58;3.10;;;44.30;31.60;;;;;;5110340;28;20051;-72
2022/03/24 11:39:15;;;;;;;4.40;3.20;;;44.90;31.40;;;;;;5109502;28;20525;-73
2022/03/24 11:42:19;;;;;;;7.13;3.25;;;44.20;31.60;;;;;;5106137;28;20043;-71
2022/03/24 11:45:52;;;;;;;4.47;3.15;;;42.50;30.70;;;;;;5107098;28;20050;-63
2022/03/24 11:49:17;;;;;;;4.30;3.33;;;40.50;30.50;;;;;;5103552;28;20047;-71
2022/03/24 11:56:02;;;;;;;5.63;3.63;;;38.70;31.50;;;;;;5102834;28;20047;-71
2022/03/24 11:59:07;;;;;;;4.43;3.55;;;39.80;32.40;;;;;;5104358;28;20031;-71
2022/03/24 12:02:15;;;;;;;6.57;3.92;;;39.80;33.60;;;;;;5104890;28;20039;-71
2022/03/24 12:05:20;;;;;;;7.57;3.40;;;40.60;32.40;;;;;;5104488;28;20062;-71
2022/03/24 12:08:28;;;;;;;6.78;3.40;;;41.60;32.30;;;;;;5107288;28;20510;-65
2022/03/24 12:11:32;;;;;;;3.95;3.42;;;42.50;30.70;;;;;;5112082;28;20051;-64
2022/03/24 12:14:45;;;;;;;4.38;3.60;;;42.30;30.70;;;;;;5105216;28;20568;-71
2022/03/24 12:18:04;;;;;;;6.93;3.78;;;41.60;31.10;;;;;;5106933;28;20042;-71
2022/03/24 12:21:19;;;;;;;16.40;4.20;;;41.90;31.70;;;;;;5091519;28;20375;-71
2022/03/24 12:24:37;;;;;;;8.88;4.15;;;41.70;32.20;;;;;;5105210;28;20039;-66
2022/03/24 12:28:05;;;;;;;7.13;4.50;;;37.80;32.90;;;;;;5104036;28;20046;-66
2022/03/24 12:31:10;;;;;;;10.07;4.80;;;37.60;33.00;;;;;;5107185;28;20386;-66
2022/03/24 12:34:15;;;;;;;4.93;4.45;;;36.20;34.10;;;;;;5110802;28;20059;-72
2022/03/24 12:37:26;;;;;;;6.70;4.28;;;37.10;33.50;;;;;;5102074;28;20058;-64
2022/03/24 12:40:58;;;;;;;5.53;3.92;;;38.00;31.90;;;;;;5090531;28;20041;-64
2022/03/24 12:44:05;;;;;;;5.88;3.92;;;38.90;31.80;;;;;;5103946;28;20517;-64
2022/03/24 12:47:36;;;;;;;5.50;4.63;;;40.20;32.60;;;;;;5097749;28;20059;-66
2022/03/24 12:50:42;;;;;;;9.18;4.22;;;40.90;32.20;;;;;;5048671;28;20047;-71
2022/03/24 12:53:51;;;;;;;5.60;4.03;;;41.40;32.20;;;;;;5111137;28;20047;-64
2022/03/24 12:57:30;;;;;;;7.03;3.80;;;41.80;32.20;;;;;;5111192;28;20047;-66
2022/03/24 13:01:02;;;;;;;6.15;3.88;;;41.60;32.10;;;;;;5097837;28;20047;-66
2022/03/24 13:04:08;;;;;;;5.00;4.25;;;40.00;31.50;;;;;;5106163;28;20038;-72
2022/03/24 13:07:14;;;;;;;4.05;3.65;;;39.90;32.20;;;;;;5106404;28;20042;-71
2022/03/24 13:10:24;;;;;;;4.80;4.30;;;39.60;31.50;;;;;;5113146;28;20055;-66
2022/03/24 13:13:29;;;;;;;5.40;4.00;;;37.80;32.60;;;;;;5113129;28;20050;-67
2022/03/24 13:16:33;;;;;;;7.05;4.57;;;38.90;32.60;;;;;;5108748;28;20039;-64
2022/03/24 13:19:41;;;;;;;7.07;4.00;;;39.50;32.50;;;;;;5108335;28;20042;-73
2022/03/24 13:22:48;;;;;;;7.15;4.10;;;39.90;32.30;;;;;;5101780;28;20058;-73
2022/03/24 13:25:53;;;;;;;5.65;3.75;;;37.20;30.40;;;;;;5112538;28;20039;-73
2022/03/24 13:28:58;;;;;;;4.80;4.05;;;36.70;33.40;;;;;;5106216;28;20039;-72
2022/03/24 13:32:25;;;;;;;6.47;4.30;;;37.90;33.30;;;;;;5099342;28;20047;-66
2022/03/24 13:35:35;;;;;;;6.22;4.65;;;38.60;32.10;;;;;;5107279;28;20047;-65
2022/03/24 13:38:39;;;;;;;7.70;4.63;;;38.80;33.00;;;;;;5112165;28;20058;-73
2022/03/24 13:41:45;;;;;;;7.38;4.80;;;38.50;34.00;;;;;;5107043;28;20048;-66
2022/03/24 13:44:51;;;;;;;5.97;4.78;;;38.60;34.10;;;;;;5111789;28;20050;-64
2022/03/24 13:48:00;;;;;;;8.57;5.00;;;38.60;33.50;;;;;;5106603;28;20535;-73
2022/03/24 13:51:11;;;;;;;10.98;5.38;;;39.00;33.60;;;;;;5109290;28;20058;-65
2022/03/24 13:54:20;;;;;;;9.52;5.22;;;38.50;33.90;;;;;;5102390;28;20050;-66
2022/03/24 13:57:24;;;;;;;8.82;5.53;;;37.10;34.60;;;;;;5108236;28;20047;-72
2022/03/24 14:00:33;;;;;;;8.60;5.05;;;36.60;34.30;;;;;;5112257;28;20514;-73
2022/03/24 14:03:39;;;;;;;6.28;4.85;;;36.80;34.50;;;;;;5109750;28;20039;-72
2022/03/24 14:07:03;;;;;;;10.93;5.15;;;36.80;33.80;;;;;;5099257;28;20374;-72
2022/03/24 14:10:08;;;;;;;5.40;4.78;;;37.40;34.30;;;;;;5111253;28;20051;-74
2022/03/24 14:13:34;;;;;;;6.43;4.78;;;37.40;34.60;;;;;;5106910;28;20047;-72
2022/03/24 14:16:39;;;;;;;8.52;4.55;;;36.70;33.40;;;;;;5108364;28;21519;-72
2022/03/24 14:19:54;;;;;;;10.23;4.43;;;36.80;34.30;;;;;;5112185;28;20555;-66
2022/03/24 14:22:57;;;;;;;7.68;4.70;;;36.80;34.20;;;;;;5109516;28;20039;-66
2022/03/24 14:26:12;;;;;;;6.95;5.03;;;36.50;34.00;;;;;;5110336;28;20386;-66
2022/03/24 14:29:21;;;;;;;7.43;5.20;;;36.20;33.20;;;;;;5111431;28;20050;-66
2022/03/24 14:32:25;;;;;;;7.38;5.10;;;35.70;34.60;;;;;;5111392;28;20402;-64
2022/03/24 14:35:31;;;;;;;8.90;5.35;;;34.30;35.20;;;;;;5111285;28;20047;-66
2022/03/24 14:38:35;;;;;;;9.25;5.85;;;33.50;35.20;;;;;;5111965;28;20047;-72
2022/03/24 14:41:40;;;;;;;9.55;5.47;;;32.60;35.00;;;;;;5111282;28;20042;-71
2022/03/24 14:44:45;;;;;;;7.70;5.10;;;32.30;35.40;;;;;;5115419;28;20039;-72
2022/03/24 14:47:50;;;;;;;16.35;5.53;;;32.00;36.40;;;;;;5115545;28;20047;-65
2022/03/24 14:50:54;;;;;;;11.32;5.53;;;31.10;36.10;;;;;;5103686;28;20050;-72
2022/03/24 14:53:58;;;;;;;9.52;5.55;;;30.50;36.00;;;;;;5116802;28;20042;-72
2022/03/24 14:57:02;;;;;;;10.32;4.90;;;29.70;36.70;;;;;;5114652;28;20046;-64
2022/03/24 15:00:08;;;;;;;8.50;5.78;;;29.00;37.10;;;;;;5095199;28;20051;-72
2022/03/24 15:03:12;;;;;;;6.80;5.63;;;28.50;37.60;;;;;;5095815;28;20692;-72
2022/03/24 15:06:36;;;;;;;8.43;6.18;;;28.10;37.70;;;;;;5100393;28;20046;-72
2022/03/24 15:09:40;;;;;;;8.40;5.72;;;27.60;38.00;;;;;;5112644;28;20543;-64
2022/03/24 15:12:44;;;;;;;10.40;6.35;;;27.30;38.30;;;;;;5094689;28;20050;-65
2022/03/24 15:16:03;;;;;;;8.63;5.80;;;27.10;38.60;;;;;;5112701;28;20039;-65
2022/03/24 15:19:07;;;;;;;15.30;5.93;;;26.70;38.70;;;;;;5111827;28;20050;-64
2022/03/24 15:22:11;;;;;;;16.48;6.28;;;26.30;37.90;;;;;;5114516;28;20043;-65
2022/03/24 15:25:16;;;;;;;15.27;5.70;;;26.30;38.00;;;;;;5114879;28;20050;-64
2022/03/24 15:28:20;;;;;;;13.38;5.60;;;26.20;38.00;;;;;;5113579;28;20505;-65
2022/03/24 15:31:24;;;;;;;8.52;5.35;;;25.80;38.20;;;;;;5113177;28;20055;-64
2022/03/24 15:34:28;;;;;;;14.93;6.28;;;25.30;37.90;;;;;;5114279;28;20051;-64
2022/03/24 15:37:32;;;;;;;16.30;5.93;;;25.00;39.20;;;;;;5112006;28;20043;-64
2022/03/24 15:40:37;;;;;;;11.93;6.18;;;24.60;38.70;;;;;;5113639;28;20047;-63
2022/03/24 15:43:41;;;;;;;15.00;5.95;;;24.50;39.70;;;;;;5114724;28;20055;-66
2022/03/24 15:46:46;;;;;;;8.75;5.90;;;24.50;39.00;;;;;;5112976;28;20050;-66
2022/03/24 15:49:49;;;;;;;9.65;6.30;;;24.10;38.30;;;;;;5114360;28;20105;-65
2022/03/24 15:52:54;;;;;;;14.27;5.53;;;24.00;39.20;;;;;;5114334;28;20051;-63
2022/03/24 15:55:58;;;;;;;10.93;5.63;;;23.90;40.90;;;;;;5108202;28;20066;-64
2022/03/24 15:59:02;;;;;;;12.52;5.88;;;23.80;39.90;;;;;;5114163;28;20043;-65
2022/03/24 16:02:07;;;;;;;11.00;6.10;;;23.60;39.10;;;;;;5114005;28;20039;-64